createdAt,value
2017-11-04T00:01:52.696Z,8.40
2017-11-04T00:04:18.785Z,8.30
2017-11-04T00:06:44.748Z,8.30
2017-11-04T00:09:11.038Z,8.40
2017-11-04T00:11:36.977Z,8.40
2017-11-04T00:14:02.946Z,8.40
2017-11-04T00:16:28.986Z,8.40
2017-11-04T00:18:54.924Z,8.40
2017-11-04T00:21:20.892Z,8.30
2017-11-04T00:23:46.853Z,8.30
2017-11-04T00:26:12.838Z,8.40
2017-11-04T00:28:38.771Z,8.40
2017-11-04T00:31:04.691Z,8.40
2017-11-04T00:33:30.605Z,8.40
2017-11-04T00:35:56.608Z,8.30
2017-11-04T00:38:22.546Z,8.50
2017-11-04T00:40:48.549Z,8.40
2017-11-04T00:43:14.484Z,8.40
2017-11-04T00:45:40.423Z,8.40
2017-11-04T00:48:06.399Z,8.40
2017-11-04T00:50:32.529Z,8.40
2017-11-04T00:52:58.503Z,8.40
2017-11-04T00:55:24.529Z,8.40
2017-11-04T00:57:50.525Z,8.40
2017-11-04T01:00:16.517Z,8.40
2017-11-04T01:02:42.471Z,8.40
2017-11-04T01:05:08.458Z,8.40
2017-11-04T01:07:34.431Z,8.50
2017-11-04T01:10:00.432Z,8.40
2017-11-04T01:12:26.394Z,8.40
2017-11-04T01:14:52.324Z,8.50
2017-11-04T01:17:18.312Z,8.50
2017-11-04T01:19:44.349Z,8.40
2017-11-04T01:22:10.343Z,8.30
2017-11-04T01:24:36.373Z,8.30
2017-11-04T01:27:02.312Z,8.40
2017-11-04T01:29:28.246Z,8.30
2017-11-04T01:31:54.215Z,8.30
2017-11-04T01:34:20.390Z,8.40
2017-11-04T01:36:46.356Z,8.40
2017-11-04T01:39:12.305Z,8.30
2017-11-04T01:41:38.227Z,8.30
2017-11-04T01:44:04.245Z,8.20
2017-11-04T01:46:30.200Z,8.20
2017-11-04T01:48:56.306Z,8.20
2017-11-04T01:51:22.254Z,8.30
2017-11-04T01:53:48.136Z,8.30
2017-11-04T01:56:14.139Z,8.20
2017-11-04T01:58:40.865Z,8.20
2017-11-04T02:01:06.903Z,8.10
2017-11-04T02:03:32.959Z,8.10
2017-11-04T02:05:58.944Z,8.10
2017-11-04T02:08:24.898Z,8.20
2017-11-04T02:10:50.941Z,8.10
2017-11-04T02:13:17.000Z,8.10
2017-11-04T02:15:42.936Z,8.00
2017-11-04T02:18:08.871Z,8.00
2017-11-04T02:20:34.915Z,7.80
2017-11-04T02:23:00.850Z,8.00
2017-11-04T02:25:26.816Z,8.00
2017-11-04T02:27:52.780Z,8.10
2017-11-04T02:30:18.730Z,8.10
2017-11-04T02:32:44.677Z,8.10
2017-11-04T02:35:10.648Z,8.10
2017-11-04T02:37:37.271Z,8.20
2017-11-04T02:40:03.532Z,8.20
2017-11-04T02:42:30.211Z,8.10
2017-11-04T02:44:56.133Z,8.10
2017-11-04T02:47:22.141Z,8.10
2017-11-04T02:49:48.120Z,8.10
2017-11-04T02:52:14.103Z,8.10
2017-11-04T02:54:40.078Z,7.90
2017-11-04T02:57:06.098Z,8.10
2017-11-04T02:59:32.163Z,8.20
2017-11-04T03:01:58.134Z,8.20
2017-11-04T03:04:24.148Z,8.30
2017-11-04T03:06:50.112Z,8.20
2017-11-04T03:09:16.036Z,8.30
2017-11-04T03:11:42.016Z,8.10
2017-11-04T03:14:07.956Z,8.20
2017-11-04T03:16:33.959Z,8.10
2017-11-04T03:18:59.869Z,8.10
2017-11-04T03:21:25.908Z,8.00
2017-11-04T03:23:51.875Z,8.00
2017-11-04T03:26:18.639Z,7.90
2017-11-04T03:28:44.687Z,7.90
2017-11-04T03:31:10.691Z,7.80
2017-11-04T03:33:36.636Z,7.80
2017-11-04T03:36:02.588Z,7.80
2017-11-04T03:38:28.556Z,7.80
2017-11-04T03:40:54.553Z,7.80
2017-11-04T03:43:20.505Z,7.90
2017-11-04T03:45:46.519Z,7.70
2017-11-04T03:48:12.531Z,7.70
2017-11-04T03:50:38.527Z,7.70
2017-11-04T03:53:04.492Z,7.70
2017-11-04T03:55:30.516Z,7.90
2017-11-04T03:57:56.437Z,7.80
2017-11-04T04:00:22.371Z,7.70
2017-11-04T04:02:48.281Z,7.70
2017-11-04T04:05:14.401Z,7.80
2017-11-04T04:07:40.420Z,7.70
2017-11-04T04:10:06.400Z,7.80
2017-11-04T04:12:32.366Z,7.70
2017-11-04T04:14:58.341Z,7.70
2017-11-04T04:17:24.295Z,7.80
2017-11-04T04:19:50.354Z,7.80
2017-11-04T04:22:16.283Z,7.80
2017-11-04T04:24:42.203Z,7.90
2017-11-04T04:27:08.879Z,8.10
2017-11-04T04:29:34.816Z,8.00
2017-11-04T04:32:00.775Z,8.00
2017-11-04T04:34:27.467Z,7.90
2017-11-04T04:36:53.438Z,7.90
2017-11-04T04:39:19.370Z,7.90
2017-11-04T04:41:45.323Z,7.90
2017-11-04T04:44:11.273Z,7.90
2017-11-04T04:46:37.253Z,7.90
2017-11-04T04:49:03.192Z,8.00
2017-11-04T04:51:29.186Z,8.00
2017-11-04T04:53:55.155Z,8.10
2017-11-04T04:56:21.106Z,8.10
2017-11-04T04:58:47.809Z,8.10
2017-11-04T05:01:13.760Z,8.10
2017-11-04T05:03:40.488Z,8.10
2017-11-04T05:06:06.425Z,8.00
2017-11-04T05:08:33.137Z,8.10
2017-11-04T05:10:59.080Z,8.00
2017-11-04T05:13:25.041Z,8.10
2017-11-04T05:15:51.745Z,8.20
2017-11-04T05:18:18.536Z,8.20
2017-11-04T05:20:44.488Z,8.10
2017-11-04T05:23:11.526Z,8.10
2017-11-04T05:25:37.488Z,8.20
2017-11-04T05:28:03.450Z,8.20
2017-11-04T05:30:29.408Z,8.20
2017-11-04T05:32:55.383Z,8.20
2017-11-04T05:35:21.357Z,8.20
2017-11-04T05:37:47.275Z,8.20
2017-11-04T05:40:13.232Z,8.20
2017-11-04T05:42:39.248Z,8.10
2017-11-04T05:45:05.212Z,8.10
2017-11-04T05:47:32.058Z,8.10
2017-11-04T05:49:58.127Z,8.30
2017-11-04T05:52:24.898Z,8.20
2017-11-04T05:54:50.903Z,8.20
2017-11-04T05:57:17.613Z,8.30
2017-11-04T05:59:44.298Z,8.30
2017-11-04T06:02:10.241Z,8.30
2017-11-04T06:04:37.651Z,8.20
2017-11-04T06:07:03.604Z,8.10
2017-11-04T06:09:29.584Z,8.10
2017-11-04T06:11:55.564Z,8.30
2017-11-04T06:14:21.698Z,8.20
2017-11-04T06:16:47.730Z,8.20
2017-11-04T06:19:13.761Z,8.20
2017-11-04T06:21:40.451Z,8.20
2017-11-04T06:24:06.383Z,8.20
2017-11-04T06:26:32.305Z,8.30
2017-11-04T06:28:58.432Z,8.30
2017-11-04T06:31:24.415Z,8.30
2017-11-04T06:33:50.383Z,8.30
2017-11-04T06:36:16.346Z,8.30
2017-11-04T06:38:42.271Z,8.50
2017-11-04T06:41:08.221Z,8.40
2017-11-04T06:43:34.492Z,8.30
2017-11-04T06:46:01.190Z,8.30
2017-11-04T06:48:27.212Z,8.30
2017-11-04T06:50:53.154Z,8.30
2017-11-04T06:53:20.639Z,8.30
2017-11-04T06:55:46.608Z,8.30
2017-11-04T06:58:13.291Z,8.30
2017-11-04T07:00:39.332Z,8.20
2017-11-04T07:03:05.310Z,8.30
2017-11-04T07:05:31.356Z,8.30
2017-11-04T07:07:57.401Z,8.30
2017-11-04T07:10:23.386Z,8.40
2017-11-04T07:12:49.315Z,8.40
2017-11-04T07:15:16.134Z,8.40
2017-11-04T07:17:42.210Z,8.40
2017-11-04T07:20:08.209Z,8.50
2017-11-04T07:22:34.186Z,8.50
2017-11-04T07:25:00.152Z,8.50
2017-11-04T07:27:26.847Z,8.50
2017-11-04T07:29:52.809Z,8.50
2017-11-04T07:32:18.765Z,8.50
2017-11-04T07:34:44.705Z,8.60
2017-11-04T07:37:10.684Z,8.70
2017-11-04T07:39:37.659Z,8.70
2017-11-04T07:42:03.669Z,8.70
2017-11-04T07:44:29.624Z,8.70
2017-11-04T07:46:55.606Z,8.70
2017-11-04T07:49:22.318Z,8.70
2017-11-04T07:51:48.281Z,8.70
2017-11-04T07:54:14.286Z,8.80
2017-11-04T07:56:40.354Z,8.90
2017-11-04T07:59:06.310Z,8.70
2017-11-04T08:01:32.277Z,8.80
2017-11-04T08:03:58.265Z,8.80
2017-11-04T08:06:24.222Z,8.90
2017-11-04T08:08:50.187Z,8.90
2017-11-04T08:11:17.636Z,9.00
2017-11-04T08:13:43.623Z,9.10
2017-11-04T08:16:09.572Z,9.10
2017-11-04T08:18:35.493Z,9.10
2017-11-04T08:21:01.434Z,9.00
2017-11-04T08:23:27.354Z,9.10
2017-11-04T08:25:53.321Z,9.10
2017-11-04T08:28:19.332Z,9.10
2017-11-04T08:30:45.327Z,9.10
2017-11-04T08:33:12.256Z,9.10
2017-11-04T08:35:38.227Z,9.10
2017-11-04T08:38:04.199Z,9.10
2017-11-04T08:40:30.178Z,9.10
2017-11-04T08:42:56.147Z,9.20
2017-11-04T08:45:22.134Z,9.30
2017-11-04T08:47:48.126Z,9.30
2017-11-04T08:50:14.184Z,9.30
2017-11-04T08:52:40.128Z,9.30
2017-11-04T08:55:06.124Z,9.30
2017-11-04T08:57:32.098Z,9.20
2017-11-04T08:59:58.052Z,9.30
2017-11-04T09:02:24.217Z,9.30
2017-11-04T09:04:50.145Z,9.30
2017-11-04T09:07:16.286Z,9.50
2017-11-04T09:09:42.981Z,9.40
2017-11-04T09:12:08.921Z,9.40
2017-11-04T09:14:34.925Z,9.50
2017-11-04T09:17:02.367Z,9.50
2017-11-04T09:19:28.421Z,9.40
2017-11-04T09:21:54.436Z,9.50
2017-11-04T09:24:20.472Z,9.40
2017-11-04T09:26:46.460Z,9.40
2017-11-04T09:29:13.108Z,9.40
2017-11-04T09:31:39.044Z,9.30
2017-11-04T09:34:05.182Z,9.30
2017-11-04T09:36:31.909Z,9.40
2017-11-04T09:38:57.936Z,9.30
2017-11-04T09:41:24.671Z,9.50
2017-11-04T09:43:50.614Z,9.40
2017-11-04T09:46:17.348Z,9.50
2017-11-04T09:48:44.294Z,9.50
2017-11-04T09:51:10.392Z,9.40
2017-11-04T09:53:37.350Z,9.50
2017-11-04T09:56:03.509Z,9.50
2017-11-04T09:58:29.534Z,9.50
2017-11-04T10:00:55.532Z,9.40
2017-11-04T10:03:21.649Z,9.20
2017-11-04T10:05:47.729Z,9.50
2017-11-04T10:08:15.553Z,9.50
2017-11-04T10:10:41.702Z,9.50
2017-11-04T10:13:12.194Z,9.60
2017-11-04T10:15:39.109Z,9.60
2017-11-04T10:18:05.247Z,9.70
2017-11-04T10:20:34.349Z,9.70
2017-11-04T10:23:01.417Z,9.80
2017-11-04T10:25:28.160Z,10.00
2017-11-04T10:27:54.115Z,9.90
2017-11-04T10:30:20.254Z,10.00
2017-11-04T10:32:46.281Z,10.00
2017-11-04T10:35:12.290Z,10.10
2017-11-04T10:37:38.341Z,10.20
2017-11-04T10:40:04.316Z,10.30
2017-11-04T10:42:41.731Z,10.50
2017-11-04T10:45:07.769Z,10.60
2017-11-04T10:47:33.862Z,10.80
2017-11-04T10:49:59.796Z,10.80
2017-11-04T10:52:25.959Z,11.00
2017-11-04T10:54:51.957Z,11.10
2017-11-04T10:57:17.967Z,11.30
2017-11-04T10:59:44.006Z,11.60
2017-11-04T11:02:10.041Z,11.80
2017-11-04T11:04:35.983Z,12.10
2017-11-04T11:07:02.870Z,12.40
2017-11-04T11:09:28.945Z,12.30
2017-11-04T11:11:55.645Z,12.50
2017-11-04T11:14:23.574Z,12.70
2017-11-04T11:21:51.373Z,12.90
2017-11-04T11:24:20.529Z,13.00
2017-11-04T11:26:46.557Z,13.20
2017-11-04T11:29:12.785Z,13.20
2017-11-04T11:34:11.942Z,13.00
2017-11-04T11:36:41.482Z,12.80
2017-11-04T11:41:42.074Z,12.70
2017-11-04T11:44:12.747Z,12.70
2017-11-04T11:49:12.208Z,12.70
2017-11-04T11:51:38.213Z,12.70
2017-11-04T11:54:06.524Z,12.70
2017-11-04T11:56:32.485Z,12.70
2017-11-04T11:58:58.574Z,12.80
2017-11-04T12:01:25.759Z,12.80
2017-11-04T12:03:51.706Z,12.90
2017-11-04T12:06:17.781Z,12.80
2017-11-04T12:08:43.790Z,12.80
2017-11-04T12:11:09.696Z,12.70
2017-11-04T12:13:36.508Z,12.70
2017-11-04T12:16:02.491Z,12.60
2017-11-04T12:18:28.467Z,12.70
2017-11-04T12:20:54.461Z,12.70
2017-11-04T12:23:20.549Z,12.70
2017-11-04T12:25:46.534Z,12.80
2017-11-04T12:28:12.563Z,13.10
2017-11-04T12:30:39.246Z,13.50
2017-11-04T12:33:05.222Z,13.40
2017-11-04T12:35:31.171Z,13.50
2017-11-04T12:37:57.174Z,13.50
2017-11-04T12:40:25.520Z,13.40
2017-11-04T12:42:53.457Z,13.30
2017-11-04T12:47:54.808Z,13.40
2017-11-04T12:50:24.009Z,13.40
2017-11-04T12:52:50.924Z,13.60
2017-11-04T12:55:20.204Z,13.60
2017-11-04T12:57:46.824Z,13.70
2017-11-04T13:00:12.799Z,13.50
2017-11-04T13:02:40.687Z,13.50
2017-11-04T13:05:12.181Z,13.40
2017-11-04T13:07:41.009Z,13.60
2017-11-04T13:10:07.861Z,13.50
2017-11-04T13:12:35.434Z,13.90
2017-11-04T13:15:03.011Z,14.10
2017-11-04T13:17:29.467Z,14.40
2017-11-04T13:19:56.177Z,14.60
2017-11-04T13:22:24.259Z,14.40
2017-11-04T13:24:50.922Z,14.50
2017-11-04T13:27:17.613Z,14.60
2017-11-04T13:29:45.770Z,14.50
2017-11-04T13:32:13.386Z,14.30
2017-11-04T13:34:41.086Z,14.00
2017-11-04T13:37:07.638Z,14.00
2017-11-04T13:39:36.333Z,14.00
2017-11-04T13:42:02.345Z,13.80
2017-11-04T13:44:28.388Z,13.90
2017-11-04T13:46:55.099Z,13.70
2017-11-04T13:49:21.027Z,13.60
2017-11-04T13:51:47.048Z,13.70
2017-11-04T13:54:13.047Z,13.60
2017-11-04T13:56:40.274Z,13.60
2017-11-04T13:59:06.252Z,13.60
2017-11-04T14:01:32.258Z,13.40
2017-11-04T14:03:58.945Z,13.30
2017-11-04T14:06:24.893Z,13.30
2017-11-04T14:08:50.928Z,13.20
2017-11-04T14:11:17.005Z,13.20
2017-11-04T14:13:42.980Z,13.10
2017-11-04T14:16:09.099Z,13.00
2017-11-04T14:18:35.096Z,12.90
2017-11-04T14:21:01.107Z,12.90
2017-11-04T14:23:27.105Z,12.90
2017-11-04T14:25:53.122Z,13.00
2017-11-04T14:28:19.185Z,13.00
2017-11-04T14:30:45.918Z,13.00
2017-11-04T14:33:12.551Z,13.00
2017-11-04T14:35:38.576Z,13.00
2017-11-04T14:38:05.339Z,12.90
2017-11-04T14:40:31.301Z,12.90
2017-11-04T14:42:57.259Z,12.90
2017-11-04T14:45:23.253Z,13.00
2017-11-04T14:47:49.283Z,12.90
2017-11-04T14:50:15.311Z,12.90
2017-11-04T14:52:41.336Z,12.90
2017-11-04T14:55:07.373Z,13.00
2017-11-04T14:57:34.096Z,12.90
2017-11-04T15:00:00.076Z,12.80
2017-11-04T15:02:26.089Z,12.90
2017-11-04T15:04:52.162Z,12.90
2017-11-04T15:07:18.273Z,13.00
2017-11-04T15:09:44.355Z,13.00
2017-11-04T15:12:10.347Z,12.90
2017-11-04T15:14:40.226Z,13.00
2017-11-04T15:17:06.334Z,13.10
2017-11-04T15:19:32.352Z,13.10
2017-11-04T15:21:58.436Z,13.10
2017-11-04T15:24:26.318Z,13.10
2017-11-04T15:26:52.323Z,13.10
2017-11-04T15:29:19.215Z,13.20
2017-11-04T15:31:45.446Z,13.30
2017-11-04T15:34:11.803Z,13.10
2017-11-04T15:36:37.977Z,13.10
2017-11-04T15:39:03.971Z,13.10
2017-11-04T15:41:29.974Z,13.10
2017-11-04T15:43:56.276Z,13.00
2017-11-04T15:46:22.277Z,13.10
2017-11-04T15:48:48.327Z,13.00
2017-11-04T15:51:14.398Z,13.10
2017-11-04T15:53:41.145Z,13.00
2017-11-04T15:56:07.086Z,13.00
2017-11-04T15:58:33.041Z,13.00
2017-11-04T16:00:59.247Z,12.90
2017-11-04T16:03:25.609Z,12.90
2017-11-04T16:05:51.818Z,12.90
2017-11-04T16:08:18.243Z,12.90
2017-11-04T16:10:44.242Z,12.70
2017-11-04T16:13:10.233Z,12.80
2017-11-04T16:15:36.452Z,12.80
2017-11-04T16:18:02.412Z,12.70
2017-11-04T16:20:28.386Z,12.70
2017-11-04T16:22:54.357Z,12.70
2017-11-04T16:25:20.501Z,12.70
2017-11-04T16:27:46.497Z,12.60
2017-11-04T16:30:12.500Z,12.60
2017-11-04T16:32:38.500Z,12.60
2017-11-04T16:35:04.589Z,12.60
2017-11-04T16:37:30.656Z,12.50
2017-11-04T16:39:56.616Z,12.40
2017-11-04T16:42:22.619Z,12.40
2017-11-04T16:44:49.379Z,12.30
2017-11-04T16:47:15.403Z,12.30
2017-11-04T16:49:41.397Z,12.30
2017-11-04T16:52:07.381Z,12.30
2017-11-04T16:54:33.383Z,12.30
2017-11-04T16:56:59.315Z,12.20
2017-11-04T16:59:25.297Z,12.30
2017-11-04T17:01:52.031Z,12.30
2017-11-04T17:04:18.067Z,12.20
2017-11-04T17:06:44.096Z,12.30
2017-11-04T17:09:10.588Z,12.20
2017-11-04T17:11:36.543Z,12.20
2017-11-04T17:14:02.617Z,12.10
2017-11-04T17:16:28.816Z,12.10
2017-11-04T17:18:54.733Z,12.10
2017-11-04T17:21:21.636Z,12.10
2017-11-04T17:23:47.585Z,12.10
2017-11-04T17:26:13.650Z,12.10
2017-11-04T17:28:39.680Z,12.10
2017-11-04T17:31:05.893Z,12.00
2017-11-04T17:33:31.948Z,11.90
2017-11-04T17:35:58.055Z,11.80
2017-11-04T17:38:24.287Z,11.70
2017-11-04T17:40:50.246Z,11.60
2017-11-04T17:43:16.247Z,11.60
2017-11-04T17:45:42.427Z,11.60
2017-11-04T17:48:08.467Z,11.60
2017-11-04T17:50:43.663Z,11.60
2017-11-04T17:53:12.432Z,11.60
2017-11-04T17:55:44.772Z,11.50
2017-11-04T17:58:17.207Z,11.60
2017-11-04T18:00:43.261Z,11.60
2017-11-04T18:03:09.308Z,11.60
2017-11-04T18:05:35.279Z,11.60
2017-11-04T18:08:01.342Z,11.60
2017-11-04T18:10:27.346Z,11.50
2017-11-04T18:12:54.204Z,11.70
2017-11-04T18:15:22.887Z,11.70
2017-11-04T18:17:53.223Z,11.60
2017-11-04T18:20:19.353Z,11.60
2017-11-04T18:22:48.838Z,11.40
2017-11-04T18:25:15.504Z,11.40
2017-11-04T18:27:42.932Z,11.30
2017-11-04T18:30:10.413Z,11.40
2017-11-04T18:32:36.466Z,11.40
2017-11-04T18:35:02.426Z,11.50
2017-11-04T18:37:28.399Z,11.40
2017-11-04T18:39:54.404Z,11.40
2017-11-04T18:42:21.179Z,11.30
2017-11-04T18:44:47.298Z,11.20
2017-11-04T18:47:13.471Z,11.20
2017-11-04T18:49:39.604Z,11.20
2017-11-04T18:52:05.582Z,11.30
2017-11-04T18:54:31.612Z,11.30
2017-11-04T18:56:57.613Z,11.30
2017-11-04T18:59:23.747Z,11.30
2017-11-04T19:01:49.727Z,11.20
2017-11-04T19:04:16.431Z,11.10
2017-11-04T19:06:42.380Z,11.10
2017-11-04T19:09:08.333Z,11.10
2017-11-04T19:11:34.324Z,11.10
2017-11-04T19:14:00.357Z,11.00
2017-11-04T19:16:27.077Z,11.00
2017-11-04T19:18:53.036Z,10.90
2017-11-04T19:21:18.978Z,11.00
2017-11-04T19:23:47.517Z,11.00
2017-11-04T19:26:15.086Z,11.10
2017-11-04T19:28:42.749Z,11.00
2017-11-04T19:31:12.675Z,11.00
2017-11-04T19:33:38.952Z,10.90
2017-11-04T19:36:04.925Z,11.00
2017-11-04T19:38:30.910Z,11.00
2017-11-04T19:40:57.648Z,10.90
2017-11-04T19:43:23.693Z,10.90
2017-11-04T19:45:50.488Z,10.90
2017-11-04T19:48:16.569Z,10.90
2017-11-04T19:50:42.547Z,10.90
2017-11-04T19:53:08.533Z,10.80
2017-11-04T19:55:34.490Z,10.90
2017-11-04T19:58:00.476Z,10.90
2017-11-04T20:00:26.478Z,10.90
2017-11-04T20:02:52.446Z,10.90
2017-11-04T20:05:18.451Z,10.90
2017-11-04T20:07:44.423Z,10.80
2017-11-04T20:10:11.175Z,10.70
2017-11-04T20:12:37.491Z,10.70
2017-11-04T20:15:04.270Z,10.80
2017-11-04T20:17:30.387Z,10.70
2017-11-04T20:19:56.540Z,10.70
2017-11-04T20:22:22.512Z,10.70
2017-11-04T20:24:48.431Z,10.70
2017-11-04T20:27:14.355Z,10.70
2017-11-04T20:29:40.455Z,10.60
2017-11-04T20:32:06.444Z,10.60
2017-11-04T20:34:32.449Z,10.60
2017-11-04T20:36:58.412Z,10.60
2017-11-04T20:39:24.368Z,10.60
2017-11-04T20:41:50.367Z,10.60
2017-11-04T20:44:16.395Z,10.50
2017-11-04T20:46:42.427Z,10.60
2017-11-04T20:49:08.358Z,10.50
2017-11-04T20:51:34.313Z,10.50
2017-11-04T20:54:00.288Z,10.50
2017-11-04T20:56:26.961Z,10.40
2017-11-04T20:58:52.898Z,10.40
2017-11-04T21:01:18.957Z,10.40
2017-11-04T21:03:44.927Z,10.40
2017-11-04T21:06:10.932Z,10.40
2017-11-04T21:08:36.885Z,10.40
2017-11-04T21:11:02.868Z,10.30
2017-11-04T21:13:29.539Z,10.20
2017-11-04T21:15:55.521Z,10.20
2017-11-04T21:18:22.328Z,10.20
2017-11-04T21:20:48.284Z,10.30
2017-11-04T21:23:14.315Z,10.30
2017-11-04T21:25:40.248Z,10.10
2017-11-04T21:28:06.294Z,10.10
2017-11-04T21:30:32.224Z,10.10
2017-11-04T21:32:58.188Z,10.00
2017-11-04T21:35:24.249Z,10.00
2017-11-04T21:37:51.231Z,9.90
2017-11-04T21:40:18.336Z,9.90
2017-11-04T21:42:44.379Z,9.90
2017-11-04T21:45:10.420Z,9.90
2017-11-04T21:47:36.381Z,9.90
2017-11-04T21:50:03.240Z,10.00
2017-11-04T21:52:29.187Z,9.90
2017-11-04T21:54:55.311Z,10.10
2017-11-04T21:57:21.484Z,10.20
2017-11-04T21:59:47.496Z,10.20
2017-11-04T22:02:13.581Z,10.30
2017-11-04T22:04:39.650Z,10.30
2017-11-04T22:07:05.604Z,10.30
2017-11-04T22:09:31.806Z,10.30
2017-11-04T22:11:57.826Z,10.20
2017-11-04T22:14:23.797Z,10.20
2017-11-04T22:16:49.936Z,10.20
2017-11-04T22:19:16.220Z,10.10
2017-11-04T22:21:42.566Z,10.00
2017-11-04T22:24:09.332Z,9.90
2017-11-04T22:26:35.571Z,9.90
2017-11-04T22:29:02.631Z,9.90
2017-11-04T22:31:28.583Z,9.80
2017-11-04T22:33:54.545Z,9.80
2017-11-04T22:36:20.513Z,9.80
2017-11-04T22:38:47.197Z,9.80
2017-11-04T22:41:13.189Z,9.80
2017-11-04T22:43:39.216Z,9.90
2017-11-04T22:46:05.741Z,9.90
2017-11-04T22:48:31.696Z,9.80
2017-11-04T22:50:57.707Z,9.80
2017-11-04T22:53:26.634Z,9.80
2017-11-04T22:55:52.903Z,9.70
2017-11-04T22:58:18.921Z,9.70
2017-11-04T23:00:44.945Z,9.70
2017-11-04T23:03:11.144Z,9.70
2017-11-04T23:05:37.081Z,9.70
2017-11-04T23:08:03.287Z,9.70
2017-11-04T23:10:29.242Z,9.70
2017-11-04T23:12:55.280Z,10.20
2017-11-04T23:15:22.206Z,10.20
2017-11-04T23:17:48.235Z,10.10
2017-11-04T23:20:14.195Z,10.00
2017-11-04T23:22:40.196Z,9.90
2017-11-04T23:25:06.151Z,9.80
2017-11-04T23:27:32.140Z,9.70
2017-11-04T23:29:58.092Z,9.70
2017-11-04T23:32:24.120Z,9.70
2017-11-04T23:34:50.103Z,9.70
2017-11-04T23:37:16.314Z,9.70
2017-11-04T23:39:42.242Z,9.70
2017-11-04T23:42:08.214Z,9.50
2017-11-04T23:44:34.187Z,9.60
2017-11-04T23:47:00.153Z,9.60
2017-11-04T23:49:26.071Z,9.60
2017-11-04T23:51:52.029Z,9.60
2017-11-04T23:54:17.967Z,9.50
2017-11-04T23:56:43.905Z,9.50
2017-11-04T23:59:09.864Z,9.50
